createdAt,value
2022-11-09T00:00:50.910Z,15.52
2022-11-09T00:03:18.996Z,15.43
2022-11-09T00:05:56.236Z,15.29
2022-11-09T00:08:25.555Z,15.50
2022-11-09T00:10:53.424Z,15.67
2022-11-09T00:13:21.446Z,15.70
2022-11-09T00:15:49.806Z,15.64
2022-11-09T00:18:17.658Z,15.59
2022-11-09T00:20:47.940Z,15.45
2022-11-09T00:23:17.212Z,15.61
2022-11-09T00:25:47.505Z,15.43
2022-11-09T00:28:15.489Z,15.34
2022-11-09T00:30:44.554Z,15.27
2022-11-09T00:33:12.345Z,15.40
2022-11-09T00:35:40.557Z,15.39
2022-11-09T00:38:08.390Z,15.47
2022-11-09T00:40:36.239Z,15.25
2022-11-09T00:43:05.304Z,15.18
2022-11-09T00:45:33.077Z,15.00
2022-11-09T00:48:00.749Z,15.19
2022-11-09T00:50:28.546Z,15.22
2022-11-09T00:52:56.263Z,15.21
2022-11-09T00:55:24.472Z,15.33
2022-11-09T00:57:52.820Z,15.15
2022-11-09T01:00:24.255Z,15.11
2022-11-09T01:02:52.177Z,15.32
2022-11-09T01:05:20.361Z,15.31
2022-11-09T01:07:48.069Z,15.15
2022-11-09T01:10:15.736Z,15.15
2022-11-09T01:12:43.482Z,15.23
2022-11-09T01:15:11.513Z,15.30
2022-11-09T01:17:40.673Z,15.20
2022-11-09T01:20:09.129Z,15.23
2022-11-09T01:22:36.949Z,15.24
2022-11-09T01:25:04.981Z,15.22
2022-11-09T01:27:33.879Z,15.22
2022-11-09T01:30:01.576Z,15.29
2022-11-09T01:32:32.900Z,15.28
2022-11-09T01:35:02.023Z,15.27
2022-11-09T01:37:29.769Z,15.13
2022-11-09T01:39:57.498Z,15.07
2022-11-09T01:42:26.569Z,14.84
2022-11-09T01:45:22.563Z,14.85
2022-11-09T01:47:56.350Z,14.77
2022-11-09T01:50:33.144Z,14.71
2022-11-09T01:53:03.493Z,14.67
2022-11-09T01:55:31.826Z,14.71
2022-11-09T01:58:02.950Z,14.63
2022-11-09T02:00:32.878Z,14.58
2022-11-09T02:03:06.213Z,14.51
2022-11-09T02:05:36.997Z,14.56
2022-11-09T02:08:07.800Z,14.47
2022-11-09T02:10:41.760Z,14.34
2022-11-09T02:13:11.881Z,14.41
2022-11-09T02:15:45.247Z,14.42
2022-11-09T02:18:13.729Z,14.33
2022-11-09T02:20:48.369Z,14.23
2022-11-09T02:23:16.498Z,14.25
2022-11-09T02:25:47.908Z,14.21
2022-11-09T02:28:17.421Z,14.31
2022-11-09T02:30:48.432Z,14.32
2022-11-09T02:33:16.326Z,14.24
2022-11-09T02:35:44.581Z,14.16
2022-11-09T02:38:15.316Z,14.16
2022-11-09T02:40:46.862Z,14.24
2022-11-09T02:43:16.117Z,14.32
2022-11-09T02:45:43.923Z,14.41
2022-11-09T02:48:11.628Z,14.40
2022-11-09T02:50:39.426Z,14.52
2022-11-09T02:53:07.223Z,14.53
2022-11-09T02:55:36.281Z,14.62
2022-11-09T02:58:04.014Z,14.65
2022-11-09T03:00:31.681Z,14.64
2022-11-09T03:02:59.524Z,14.67
2022-11-09T03:05:27.228Z,14.63
2022-11-09T03:07:55.025Z,14.53
2022-11-09T03:10:22.715Z,14.49
2022-11-09T03:12:51.786Z,14.50
2022-11-09T03:15:19.603Z,14.41
2022-11-09T03:17:47.789Z,14.41
2022-11-09T03:20:15.629Z,14.59
2022-11-09T03:22:43.313Z,14.63
2022-11-09T03:25:11.277Z,14.66
2022-11-09T03:27:38.989Z,14.57
2022-11-09T03:30:10.354Z,14.67
2022-11-09T03:32:38.111Z,14.67
2022-11-09T03:35:06.521Z,14.64
2022-11-09T03:37:34.344Z,14.37
2022-11-09T03:40:02.057Z,14.55
2022-11-09T03:42:29.724Z,14.49
2022-11-09T03:44:57.431Z,14.53
2022-11-09T03:47:26.600Z,14.44
2022-11-09T03:49:54.281Z,14.31
2022-11-09T03:52:22.687Z,14.25
2022-11-09T03:54:50.448Z,14.28
2022-11-09T03:57:18.148Z,14.28
2022-11-09T03:59:45.893Z,14.25
2022-11-09T04:02:13.627Z,14.24
2022-11-09T04:04:42.677Z,14.22
2022-11-09T04:07:11.547Z,14.28
2022-11-09T04:09:39.300Z,14.31
2022-11-09T04:12:07.057Z,14.32
2022-11-09T04:14:34.785Z,14.32
2022-11-09T04:17:02.477Z,14.23
2022-11-09T04:19:30.198Z,14.16
2022-11-09T04:21:59.257Z,14.16
2022-11-09T04:24:26.931Z,13.96
2022-11-09T04:26:54.666Z,13.99
2022-11-09T04:29:22.399Z,14.38
2022-11-09T04:31:50.649Z,14.38
2022-11-09T04:34:18.908Z,14.55
2022-11-09T04:36:46.678Z,14.57
2022-11-09T04:39:16.041Z,14.51
2022-11-09T04:41:43.734Z,14.48
2022-11-09T04:44:11.511Z,14.52
2022-11-09T04:46:39.253Z,14.37
2022-11-09T04:49:06.933Z,14.26
2022-11-09T04:51:34.727Z,14.45
2022-11-09T04:54:02.535Z,14.52
2022-11-09T04:56:31.623Z,14.42
2022-11-09T04:58:59.375Z,14.01
2022-11-09T05:01:27.085Z,14.38
2022-11-09T05:03:54.929Z,14.32
2022-11-09T05:06:34.696Z,14.53
2022-11-09T05:09:03.858Z,14.57
2022-11-09T05:11:34.134Z,14.54
2022-11-09T05:14:02.751Z,14.32
2022-11-09T05:16:30.856Z,14.46
2022-11-09T05:18:58.532Z,14.40
2022-11-09T05:21:26.266Z,14.45
2022-11-09T05:23:58.921Z,14.43
2022-11-09T05:26:33.076Z,14.42
2022-11-09T05:29:01.563Z,14.27
2022-11-09T05:31:29.786Z,14.22
2022-11-09T05:33:59.334Z,14.27
2022-11-09T05:36:28.289Z,14.34
2022-11-09T05:38:56.551Z,14.07
2022-11-09T05:41:24.557Z,14.33
2022-11-09T05:43:53.819Z,14.24
2022-11-09T05:46:21.506Z,14.47
2022-11-09T05:48:49.361Z,14.39
2022-11-09T05:51:17.251Z,14.33
2022-11-09T05:53:46.771Z,13.88
2022-11-09T05:56:15.787Z,14.31
2022-11-09T05:58:44.237Z,14.49
2022-11-09T06:01:15.417Z,14.57
2022-11-09T06:03:44.212Z,14.38
2022-11-09T06:06:14.577Z,14.24
2022-11-09T06:08:42.592Z,14.38
2022-11-09T06:11:11.945Z,14.16
2022-11-09T06:13:39.745Z,13.82
2022-11-09T06:16:08.326Z,14.28
2022-11-09T06:18:37.940Z,14.54
2022-11-09T06:21:07.036Z,14.42
2022-11-09T06:23:34.949Z,14.07
2022-11-09T06:26:06.319Z,14.25
2022-11-09T06:28:34.717Z,14.30
2022-11-09T06:31:03.768Z,14.33
2022-11-09T06:33:32.946Z,14.52
2022-11-09T06:36:02.363Z,14.57
2022-11-09T06:38:30.384Z,14.78
2022-11-09T06:41:00.470Z,14.50
2022-11-09T06:43:28.834Z,14.32
2022-11-09T06:45:56.772Z,14.61
2022-11-09T06:48:24.673Z,14.62
2022-11-09T06:50:52.374Z,14.78
2022-11-09T06:53:22.014Z,14.52
2022-11-09T06:55:51.000Z,14.65
2022-11-09T06:58:20.783Z,14.56
2022-11-09T07:00:48.620Z,15.00
2022-11-09T07:03:17.159Z,14.92
2022-11-09T07:05:45.433Z,15.01
2022-11-09T07:08:13.501Z,14.80
2022-11-09T07:10:43.012Z,15.01
2022-11-09T07:13:11.501Z,14.93
2022-11-09T07:15:39.883Z,14.81
2022-11-09T07:18:09.468Z,14.91
2022-11-09T07:20:38.952Z,14.96
2022-11-09T07:23:06.717Z,14.90
2022-11-09T07:25:34.991Z,14.71
2022-11-09T07:28:09.481Z,14.69
2022-11-09T07:30:37.977Z,15.09
2022-11-09T07:33:12.480Z,15.14
2022-11-09T07:35:40.248Z,15.07
2022-11-09T07:38:08.393Z,15.21
2022-11-09T07:40:36.641Z,15.20
2022-11-09T07:43:06.398Z,15.05
2022-11-09T07:45:36.728Z,15.23
2022-11-09T07:48:07.060Z,15.19
2022-11-09T07:50:35.867Z,15.29
2022-11-09T07:53:05.494Z,15.33
2022-11-09T07:55:33.277Z,15.36
2022-11-09T07:58:03.282Z,15.28
2022-11-09T08:00:33.385Z,15.35
2022-11-09T08:03:03.017Z,15.11
2022-11-09T08:05:31.088Z,15.09
2022-11-09T08:08:00.091Z,15.14
2022-11-09T08:10:29.250Z,15.14
2022-11-09T08:12:58.150Z,15.13
2022-11-09T08:15:26.813Z,14.89
2022-11-09T08:17:54.616Z,15.07
2022-11-09T08:20:23.704Z,15.16
2022-11-09T08:22:51.377Z,15.22
2022-11-09T08:25:19.160Z,15.20
2022-11-09T08:27:47.115Z,15.05
2022-11-09T08:30:17.378Z,15.10
2022-11-09T08:32:45.676Z,15.05
2022-11-09T08:35:17.646Z,15.11
2022-11-09T08:37:47.882Z,15.49
2022-11-09T08:40:18.282Z,15.45
2022-11-09T08:42:46.394Z,15.33
2022-11-09T08:45:14.933Z,15.37
2022-11-09T08:47:42.937Z,15.37
2022-11-09T08:50:12.071Z,15.38
2022-11-09T08:52:40.842Z,15.43
2022-11-09T08:55:10.676Z,15.43
2022-11-09T08:57:38.424Z,15.50
2022-11-09T09:00:07.729Z,15.41
2022-11-09T09:02:35.610Z,15.44
2022-11-09T09:05:03.291Z,15.42
2022-11-09T09:07:31.068Z,15.28
2022-11-09T09:09:58.783Z,15.65
2022-11-09T09:12:27.908Z,15.48
2022-11-09T09:14:55.620Z,15.87
2022-11-09T09:17:23.371Z,15.49
2022-11-09T09:19:51.068Z,15.90
2022-11-09T09:22:19.720Z,15.83
2022-11-09T09:24:47.541Z,15.55
2022-11-09T09:27:15.556Z,15.74
2022-11-09T09:29:44.716Z,15.63
2022-11-09T09:32:12.462Z,15.50
2022-11-09T09:34:40.144Z,16.10
2022-11-09T09:37:08.062Z,16.11
2022-11-09T09:39:35.810Z,15.88
2022-11-09T09:42:07.445Z,16.27
2022-11-09T09:44:41.736Z,16.33
2022-11-09T09:47:14.316Z,16.39
2022-11-09T09:49:45.873Z,16.05
2022-11-09T09:52:21.440Z,16.17
2022-11-09T09:54:55.736Z,16.29
2022-11-09T09:57:24.361Z,15.86
2022-11-09T09:59:53.998Z,15.63
2022-11-09T10:02:25.705Z,16.12
2022-11-09T10:04:56.228Z,16.07
2022-11-09T10:07:29.596Z,16.36
2022-11-09T10:10:17.521Z,16.63
2022-11-09T10:13:06.792Z,17.13
2022-11-09T10:15:42.012Z,17.20
2022-11-09T10:18:28.268Z,17.07
2022-11-09T10:21:15.937Z,16.76
2022-11-09T10:23:56.211Z,17.14
2022-11-09T10:26:28.571Z,17.03
2022-11-09T10:29:15.562Z,17.18
2022-11-09T10:31:46.924Z,16.93
2022-11-09T10:34:19.809Z,17.10
2022-11-09T10:36:55.749Z,17.57
2022-11-09T10:39:26.057Z,17.86
2022-11-09T10:41:53.842Z,17.67
2022-11-09T10:44:21.645Z,17.68
2022-11-09T10:47:08.012Z,17.42
2022-11-09T10:49:38.119Z,16.67
2022-11-09T10:52:06.914Z,17.29
2022-11-09T10:54:37.840Z,17.68
2022-11-09T10:57:15.748Z,17.25
2022-11-09T10:59:50.589Z,17.85
2022-11-09T11:02:41.710Z,17.90
2022-11-09T11:05:35.839Z,17.16
2022-11-09T11:08:23.480Z,18.02
2022-11-09T11:11:02.136Z,17.50
2022-11-09T11:13:34.649Z,17.69
2022-11-09T11:16:02.524Z,17.38
2022-11-09T11:18:32.844Z,17.53
2022-11-09T11:21:19.019Z,17.55
2022-11-09T11:24:09.804Z,17.97
2022-11-09T11:26:41.662Z,17.85
2022-11-09T11:29:25.635Z,18.04
2022-11-09T11:31:53.476Z,18.16
2022-11-09T11:34:45.676Z,18.42
2022-11-09T11:37:24.213Z,17.64
2022-11-09T11:40:01.059Z,18.00
2022-11-09T11:42:54.684Z,18.03
2022-11-09T11:45:41.642Z,17.67
2022-11-09T11:48:28.811Z,17.97
2022-11-09T11:51:04.538Z,17.84
2022-11-09T11:53:49.165Z,18.14
2022-11-09T11:56:24.142Z,18.18
2022-11-09T11:59:30.280Z,17.93
2022-11-09T12:02:22.489Z,17.73
2022-11-09T12:05:26.117Z,18.33
2022-11-09T12:08:02.440Z,17.81
2022-11-09T12:10:45.832Z,18.38
2022-11-09T12:13:36.112Z,18.63
2022-11-09T12:16:09.203Z,18.45
2022-11-09T12:18:48.744Z,18.35
2022-11-09T12:21:18.599Z,18.01
2022-11-09T12:24:11.441Z,18.33
2022-11-09T12:27:17.974Z,18.33
2022-11-09T12:29:49.562Z,18.82
2022-11-09T12:32:25.963Z,18.47
2022-11-09T12:34:59.290Z,18.75
2022-11-09T12:37:29.155Z,18.68
2022-11-09T12:40:05.310Z,19.00
2022-11-09T12:42:38.428Z,19.23
2022-11-09T12:45:19.662Z,18.91
2022-11-09T12:47:47.362Z,18.64
2022-11-09T12:50:18.151Z,19.40
2022-11-09T12:52:48.404Z,19.26
2022-11-09T12:55:19.531Z,19.19
2022-11-09T12:57:49.546Z,18.53
2022-11-09T13:00:49.834Z,17.75
2022-11-09T13:03:24.010Z,18.02
2022-11-09T13:06:16.465Z,17.98
2022-11-09T13:08:56.593Z,17.93
2022-11-09T13:11:35.769Z,17.86
2022-11-09T13:14:34.412Z,17.84
2022-11-09T13:17:23.187Z,17.45
2022-11-09T13:19:54.222Z,17.93
2022-11-09T13:23:00.768Z,17.92
2022-11-09T13:25:48.160Z,18.41
2022-11-09T13:28:44.060Z,17.78
2022-11-09T13:31:13.614Z,17.84
2022-11-09T13:33:42.237Z,18.04
2022-11-09T13:36:20.120Z,18.27
2022-11-09T13:39:08.949Z,18.09
2022-11-09T13:41:44.725Z,19.00
2022-11-09T13:44:34.206Z,19.12
2022-11-09T13:47:06.798Z,19.16
2022-11-09T13:49:55.354Z,19.93
2022-11-09T13:52:48.784Z,20.62
2022-11-09T13:55:27.084Z,20.73
2022-11-09T13:57:56.749Z,20.72
2022-11-09T14:00:26.734Z,20.19
2022-11-09T14:02:58.534Z,20.80
2022-11-09T14:05:29.039Z,20.07
2022-11-09T14:07:57.005Z,20.40
2022-11-09T14:10:37.423Z,19.88
2022-11-09T14:13:16.075Z,20.14
2022-11-09T14:15:50.704Z,20.27
2022-11-09T14:18:30.202Z,20.35
2022-11-09T14:21:16.271Z,19.99
2022-11-09T14:23:44.372Z,19.72
2022-11-09T14:26:24.184Z,19.59
2022-11-09T14:28:52.177Z,19.48
2022-11-09T14:31:28.317Z,18.90
2022-11-09T14:34:05.873Z,18.54
2022-11-09T14:36:36.262Z,18.73
2022-11-09T14:39:07.384Z,18.74
2022-11-09T14:41:36.230Z,18.57
2022-11-09T14:44:04.028Z,18.67
2022-11-09T14:46:32.789Z,18.39
2022-11-09T14:49:04.108Z,18.58
2022-11-09T14:51:34.865Z,18.61
2022-11-09T14:54:03.617Z,18.61
2022-11-09T14:56:33.845Z,18.38
2022-11-09T14:59:05.444Z,18.59
2022-11-09T15:01:33.155Z,18.77
2022-11-09T15:04:11.011Z,18.51
2022-11-09T15:06:47.324Z,18.15
2022-11-09T15:09:20.334Z,18.62
2022-11-09T15:11:48.658Z,18.67
2022-11-09T15:14:26.343Z,18.41
2022-11-09T15:17:00.172Z,18.76
2022-11-09T15:19:32.326Z,18.69
2022-11-09T15:22:01.724Z,18.71
2022-11-09T15:24:30.792Z,18.82
2022-11-09T15:26:58.775Z,18.69
2022-11-09T15:29:36.429Z,18.83
2022-11-09T15:32:14.954Z,18.70
2022-11-09T15:34:53.569Z,18.84
2022-11-09T15:37:25.058Z,18.87
2022-11-09T15:39:53.353Z,18.82
2022-11-09T15:42:21.958Z,18.78
2022-11-09T15:44:53.329Z,18.51
2022-11-09T15:47:25.099Z,18.60
2022-11-09T15:49:54.229Z,18.28
2022-11-09T15:52:21.933Z,18.36
2022-11-09T15:54:49.751Z,18.23
2022-11-09T15:57:19.457Z,17.86
2022-11-09T15:59:48.135Z,18.13
2022-11-09T16:02:18.864Z,18.30
2022-11-09T16:04:46.700Z,18.20
2022-11-09T16:07:17.175Z,18.07
2022-11-09T16:09:44.944Z,18.13
2022-11-09T16:12:12.652Z,17.92
2022-11-09T16:14:41.308Z,17.95
2022-11-09T16:17:09.072Z,17.90
2022-11-09T16:19:37.009Z,17.90
2022-11-09T16:22:05.176Z,17.79
2022-11-09T16:24:34.192Z,17.73
2022-11-09T16:27:03.258Z,17.62
2022-11-09T16:29:35.154Z,17.52
2022-11-09T16:32:02.848Z,17.44
2022-11-09T16:34:30.613Z,17.51
2022-11-09T16:36:59.405Z,17.34
2022-11-09T16:39:27.371Z,17.28
2022-11-09T16:41:56.628Z,17.20
2022-11-09T16:44:25.213Z,17.19
2022-11-09T16:46:53.133Z,17.15
2022-11-09T16:49:20.833Z,17.12
2022-11-09T16:51:48.596Z,17.13
2022-11-09T16:54:16.369Z,16.95
2022-11-09T16:56:44.298Z,16.93
2022-11-09T16:59:13.485Z,16.92
2022-11-09T17:01:41.386Z,16.88
2022-11-09T17:04:09.534Z,16.90
2022-11-09T17:06:37.369Z,16.84
2022-11-09T17:09:05.288Z,16.70
2022-11-09T17:11:33.500Z,16.71
2022-11-09T17:14:01.437Z,16.55
2022-11-09T17:16:30.593Z,16.35
2022-11-09T17:18:58.876Z,16.41
2022-11-09T17:21:28.351Z,16.33
2022-11-09T17:23:57.544Z,16.18
2022-11-09T17:26:26.282Z,16.32
2022-11-09T17:28:54.023Z,16.25
2022-11-09T17:31:24.083Z,16.37
2022-11-09T17:33:57.064Z,16.40
2022-11-09T17:36:49.200Z,16.24
2022-11-09T17:39:16.268Z,16.05
2022-11-09T17:41:44.157Z,16.06
2022-11-09T17:44:11.860Z,15.93
2022-11-09T17:46:39.592Z,15.92
2022-11-09T17:49:10.360Z,15.85
2022-11-09T17:51:38.411Z,15.82
2022-11-09T17:54:06.494Z,15.79
2022-11-09T17:56:34.886Z,15.90
2022-11-09T17:59:04.920Z,15.80
2022-11-09T18:01:36.565Z,15.64
2022-11-09T18:04:10.815Z,15.58
2022-11-09T18:06:39.396Z,15.47
2022-11-09T18:11:54.997Z,15.66
2022-11-09T18:14:22.732Z,15.62
2022-11-09T18:16:50.424Z,15.76
2022-11-09T18:19:19.541Z,15.58
2022-11-09T18:21:47.357Z,15.42
2022-11-09T18:24:15.150Z,15.47
2022-11-09T18:26:43.066Z,15.40
2022-11-09T18:29:10.773Z,15.33
2022-11-09T18:31:38.520Z,15.24
2022-11-09T18:34:06.189Z,15.14
2022-11-09T18:36:35.345Z,15.12
2022-11-09T18:39:03.378Z,14.98
2022-11-09T18:41:31.265Z,14.87
2022-11-09T18:43:59.210Z,14.82
2022-11-09T18:46:30.599Z,14.77
2022-11-09T18:48:58.305Z,15.04
2022-11-09T18:51:26.129Z,15.16
2022-11-09T18:53:55.175Z,15.20
2022-11-09T18:56:24.847Z,15.13
2022-11-09T18:58:54.357Z,15.15
2022-11-09T19:01:24.029Z,15.07
2022-11-09T19:03:57.799Z,14.91
2022-11-09T19:06:27.014Z,14.82
2022-11-09T19:09:13.627Z,14.70
2022-11-09T19:11:41.764Z,14.62
2022-11-09T19:14:10.036Z,14.57
2022-11-09T19:16:37.918Z,14.58
2022-11-09T19:19:05.703Z,14.57
2022-11-09T19:21:39.970Z,14.50
2022-11-09T19:24:12.904Z,14.53
2022-11-09T19:26:40.645Z,14.48
2022-11-09T19:29:09.506Z,14.43
2022-11-09T19:31:38.343Z,14.42
2022-11-09T19:34:06.138Z,14.53
2022-11-09T19:36:34.681Z,14.54
2022-11-09T19:39:02.752Z,14.58
2022-11-09T19:41:31.969Z,14.63
2022-11-09T19:44:00.344Z,14.66
2022-11-09T19:46:30.421Z,14.56
2022-11-09T19:48:58.581Z,14.40
2022-11-09T19:51:29.262Z,14.58
2022-11-09T19:53:58.469Z,14.47
2022-11-09T19:56:28.552Z,14.40
2022-11-09T19:58:58.998Z,14.31
2022-11-09T20:01:27.257Z,14.31
2022-11-09T20:03:56.993Z,14.31
2022-11-09T20:06:25.656Z,14.18
2022-11-09T20:08:53.809Z,14.11
2022-11-09T20:11:41.097Z,14.00
2022-11-09T20:14:11.567Z,14.04
2022-11-09T20:16:40.588Z,13.97
2022-11-09T20:19:11.161Z,13.84
2022-11-09T20:21:40.177Z,13.83
2022-11-09T20:24:11.017Z,13.74
2022-11-09T20:26:39.089Z,13.69
2022-11-09T20:29:06.833Z,13.62
2022-11-09T20:31:37.108Z,13.65
2022-11-09T20:34:04.923Z,13.64
2022-11-09T20:36:33.033Z,13.72
2022-11-09T20:39:00.713Z,13.84
2022-11-09T20:41:29.471Z,13.84
2022-11-09T20:43:57.186Z,13.62
2022-11-09T20:46:25.689Z,13.53
2022-11-09T20:48:55.813Z,13.51
2022-11-09T20:51:25.188Z,13.46
2022-11-09T20:53:53.177Z,13.55
2022-11-09T20:56:21.594Z,13.60
2022-11-09T20:58:49.626Z,13.57
2022-11-09T21:01:19.353Z,13.57
2022-11-09T21:03:47.905Z,13.60
2022-11-09T21:06:17.072Z,13.54
2022-11-09T21:08:46.133Z,13.57
2022-11-09T21:11:14.369Z,13.54
2022-11-09T21:13:43.913Z,13.57
2022-11-09T21:16:13.632Z,13.50
2022-11-09T21:18:41.824Z,13.41
2022-11-09T21:21:11.299Z,13.31
2022-11-09T21:23:58.759Z,13.24
2022-11-09T21:26:44.559Z,13.14
2022-11-09T21:29:32.818Z,13.17
2022-11-09T21:32:01.014Z,13.23
2022-11-09T21:34:34.030Z,13.20
2022-11-09T21:37:04.443Z,13.14
2022-11-09T21:39:33.733Z,13.08
2022-11-09T21:42:01.925Z,13.08
2022-11-09T21:44:31.046Z,12.94
2022-11-09T21:46:59.187Z,12.98
2022-11-09T21:49:26.901Z,13.02
2022-11-09T21:51:55.101Z,12.96
2022-11-09T21:54:23.744Z,13.00
2022-11-09T21:56:53.618Z,13.05
2022-11-09T21:59:21.443Z,12.93
2022-11-09T22:01:49.274Z,12.96
2022-11-09T22:04:17.223Z,12.93
2022-11-09T22:06:45.060Z,12.83
2022-11-09T22:09:16.601Z,12.77
2022-11-09T22:12:02.147Z,12.69
2022-11-09T22:14:48.831Z,12.78
2022-11-09T22:17:16.903Z,12.71
2022-11-09T22:20:01.955Z,12.65
2022-11-09T22:22:31.225Z,12.65
2022-11-09T22:24:58.986Z,12.61
2022-11-09T22:27:26.875Z,12.57
2022-11-09T22:29:56.000Z,12.42
2022-11-09T22:32:23.702Z,12.59
2022-11-09T22:34:51.565Z,12.60
2022-11-09T22:37:19.404Z,12.49
2022-11-09T22:39:47.772Z,12.45
2022-11-09T22:42:15.769Z,12.56
2022-11-09T22:44:43.567Z,12.68
2022-11-09T22:47:13.317Z,12.55
2022-11-09T22:49:40.996Z,12.42
2022-11-09T22:52:09.441Z,12.48
2022-11-09T22:54:37.134Z,12.39
2022-11-09T22:57:05.160Z,12.45
2022-11-09T22:59:32.880Z,12.45
2022-11-09T23:02:00.642Z,12.47
2022-11-09T23:04:29.826Z,12.49
2022-11-09T23:06:57.659Z,12.30
2022-11-09T23:09:25.389Z,12.19
2022-11-09T23:11:53.083Z,12.09
2022-11-09T23:14:40.929Z,11.97
2022-11-09T23:17:28.620Z,12.14
2022-11-09T23:19:56.753Z,12.17
2022-11-09T23:22:24.460Z,12.17
2022-11-09T23:25:09.459Z,11.99
2022-11-09T23:27:37.216Z,11.96
2022-11-09T23:30:05.905Z,11.93
2022-11-09T23:32:33.676Z,11.98
2022-11-09T23:35:02.696Z,12.01
2022-11-09T23:37:30.636Z,11.99
2022-11-09T23:39:58.332Z,11.96
2022-11-09T23:42:26.140Z,11.94
2022-11-09T23:44:53.824Z,12.10
2022-11-09T23:47:21.566Z,12.27
2022-11-09T23:49:49.349Z,12.11
2022-11-09T23:52:18.561Z,11.74
2022-11-09T23:54:46.590Z,11.63
2022-11-09T23:57:14.564Z,11.70
2022-11-09T23:59:42.299Z,11.55
